createdAt,value
2019-02-25T00:00:04.744Z,6.27
2019-02-25T00:02:34.135Z,6.23
2019-02-25T00:05:02.998Z,6.16
2019-02-25T00:07:31.816Z,6.11
2019-02-25T00:10:00.567Z,6.05
2019-02-25T00:12:29.373Z,6.01
2019-02-25T00:14:58.157Z,5.97
2019-02-25T00:17:27.032Z,5.95
2019-02-25T00:19:55.828Z,5.92
2019-02-25T00:22:25.306Z,5.90
2019-02-25T00:24:54.194Z,5.86
2019-02-25T00:27:23.548Z,5.81
2019-02-25T00:29:52.429Z,5.78
2019-02-25T00:32:22.250Z,5.75
2019-02-25T00:34:51.038Z,5.72
2019-02-25T00:37:20.907Z,5.69
2019-02-25T00:39:50.701Z,5.65
2019-02-25T00:42:21.190Z,5.62
2019-02-25T00:44:51.002Z,5.60
2019-02-25T00:47:19.775Z,5.60
2019-02-25T00:49:49.096Z,5.58
2019-02-25T00:52:18.981Z,5.54
2019-02-25T00:54:47.824Z,5.51
2019-02-25T00:57:17.307Z,5.48
2019-02-25T00:59:46.099Z,5.42
2019-02-25T01:02:14.880Z,5.39
2019-02-25T01:04:43.671Z,5.35
2019-02-25T01:07:15.219Z,5.32
2019-02-25T01:09:43.978Z,5.29
2019-02-25T01:12:13.658Z,5.25
2019-02-25T01:14:43.151Z,5.21
2019-02-25T01:17:12.013Z,5.20
2019-02-25T01:19:40.771Z,5.16
2019-02-25T01:22:09.620Z,5.14
2019-02-25T01:24:39.484Z,5.12
2019-02-25T01:27:09.840Z,5.10
2019-02-25T01:29:38.630Z,5.09
2019-02-25T01:32:08.051Z,5.07
2019-02-25T01:34:36.902Z,5.04
2019-02-25T01:37:07.397Z,5.02
2019-02-25T01:39:36.207Z,5.00
2019-02-25T01:42:05.025Z,4.98
2019-02-25T01:44:34.754Z,4.97
2019-02-25T01:47:03.564Z,4.96
2019-02-25T01:49:32.346Z,4.94
2019-02-25T01:52:02.017Z,4.93
2019-02-25T01:54:30.811Z,4.95
2019-02-25T01:56:59.592Z,4.94
2019-02-25T01:59:28.384Z,4.92
2019-02-25T02:01:57.182Z,4.86
2019-02-25T02:04:26.379Z,4.82
2019-02-25T02:06:55.255Z,4.77
2019-02-25T02:09:24.022Z,4.73
2019-02-25T02:11:52.844Z,4.71
2019-02-25T02:14:22.248Z,4.67
2019-02-25T02:16:51.031Z,4.64
2019-02-25T02:19:20.794Z,4.61
2019-02-25T02:21:49.582Z,4.60
2019-02-25T02:24:18.402Z,4.57
2019-02-25T02:26:47.170Z,4.54
2019-02-25T02:29:15.958Z,4.49
2019-02-25T02:31:45.822Z,4.45
2019-02-25T02:34:14.628Z,4.44
2019-02-25T02:36:45.594Z,4.44
2019-02-25T02:39:14.384Z,4.42
2019-02-25T02:41:54.786Z,4.38
2019-02-25T02:44:24.325Z,4.35
2019-02-25T02:47:05.892Z,4.32
2019-02-25T02:49:34.782Z,4.29
2019-02-25T02:52:03.582Z,4.29
2019-02-25T02:54:32.375Z,4.26
2019-02-25T02:57:01.201Z,4.22
2019-02-25T02:59:29.989Z,4.19
2019-02-25T03:01:59.467Z,4.16
2019-02-25T03:04:28.251Z,4.12
2019-02-25T03:06:58.286Z,4.10
2019-02-25T03:09:27.063Z,4.09
2019-02-25T03:11:55.847Z,4.06
2019-02-25T03:14:24.632Z,4.04
2019-02-25T03:16:54.224Z,4.01
2019-02-25T03:19:25.041Z,4.00
2019-02-25T03:21:54.172Z,3.97
2019-02-25T03:24:22.967Z,3.94
2019-02-25T03:26:51.788Z,3.91
2019-02-25T03:29:22.327Z,3.87
2019-02-25T03:31:51.918Z,3.88
2019-02-25T03:34:20.704Z,3.90
2019-02-25T03:36:49.487Z,3.91
2019-02-25T03:39:18.280Z,3.92
2019-02-25T03:41:47.070Z,3.88
2019-02-25T03:44:15.901Z,3.85
2019-02-25T03:46:44.728Z,3.84
2019-02-25T03:49:13.904Z,3.81
2019-02-25T03:51:42.761Z,3.78
2019-02-25T03:54:11.637Z,3.76
2019-02-25T03:56:40.437Z,3.73
2019-02-25T03:59:09.231Z,3.81
2019-02-25T04:01:38.002Z,3.97
2019-02-25T04:04:07.442Z,4.02
2019-02-25T04:06:36.278Z,4.04
2019-02-25T04:09:06.343Z,4.02
2019-02-25T04:11:35.690Z,3.94
2019-02-25T04:14:05.895Z,3.87
2019-02-25T04:16:34.766Z,3.81
2019-02-25T04:19:03.607Z,3.76
2019-02-25T04:21:32.404Z,3.73
2019-02-25T04:24:01.184Z,3.69
2019-02-25T04:26:29.956Z,3.68
2019-02-25T04:28:59.537Z,3.66
2019-02-25T04:31:29.035Z,3.62
2019-02-25T04:33:57.889Z,3.57
2019-02-25T04:36:26.688Z,3.52
2019-02-25T04:38:55.553Z,3.48
2019-02-25T04:41:24.340Z,3.44
2019-02-25T04:43:53.149Z,3.42
2019-02-25T04:46:21.964Z,3.40
2019-02-25T04:48:50.752Z,3.38
2019-02-25T04:51:19.551Z,3.37
2019-02-25T04:53:48.346Z,3.34
2019-02-25T04:56:17.125Z,3.30
2019-02-25T04:58:45.922Z,3.29
2019-02-25T05:01:14.703Z,3.27
2019-02-25T05:03:44.969Z,3.25
2019-02-25T05:06:17.515Z,3.22
2019-02-25T05:08:46.257Z,3.19
2019-02-25T05:11:15.050Z,3.17
2019-02-25T05:13:43.832Z,3.16
2019-02-25T05:16:12.660Z,3.16
2019-02-25T05:18:41.443Z,3.17
2019-02-25T05:21:10.237Z,3.15
2019-02-25T05:23:39.029Z,3.14
2019-02-25T05:26:08.511Z,3.11
2019-02-25T05:28:37.783Z,3.07
2019-02-25T05:31:06.613Z,3.06
2019-02-25T05:33:35.524Z,3.04
2019-02-25T05:36:04.331Z,3.02
2019-02-25T05:38:33.116Z,3.00
2019-02-25T05:41:02.590Z,3.04
2019-02-25T05:43:31.422Z,3.12
2019-02-25T05:46:00.267Z,3.16
2019-02-25T05:48:29.127Z,3.14
2019-02-25T05:50:58.181Z,3.10
2019-02-25T05:53:26.959Z,3.07
2019-02-25T05:55:55.769Z,3.03
2019-02-25T05:58:25.069Z,3.02
2019-02-25T06:00:54.948Z,3.02
2019-02-25T06:03:23.744Z,3.01
2019-02-25T06:05:52.519Z,3.00
2019-02-25T06:08:21.302Z,2.97
2019-02-25T06:10:50.129Z,2.95
2019-02-25T06:13:18.935Z,2.91
2019-02-25T06:15:51.301Z,2.92
2019-02-25T06:18:17.952Z,2.93
2019-02-25T06:20:47.308Z,2.93
2019-02-25T06:23:16.115Z,2.92
2019-02-25T06:25:44.899Z,2.91
2019-02-25T06:28:13.803Z,2.90
2019-02-25T06:30:42.586Z,2.90
2019-02-25T06:33:11.374Z,2.90
2019-02-25T06:35:40.179Z,2.90
2019-02-25T06:38:08.992Z,2.92
2019-02-25T06:40:40.879Z,2.92
2019-02-25T06:43:09.811Z,2.93
2019-02-25T06:45:38.592Z,2.94
2019-02-25T06:48:07.398Z,2.99
2019-02-25T06:50:36.229Z,3.02
2019-02-25T06:53:05.053Z,3.05
2019-02-25T06:55:34.515Z,3.06
2019-02-25T06:58:03.348Z,3.11
2019-02-25T07:00:32.145Z,3.14
2019-02-25T07:03:00.935Z,3.18
2019-02-25T07:05:38.010Z,3.21
2019-02-25T07:08:11.397Z,3.22
2019-02-25T07:10:44.415Z,3.27
2019-02-25T07:15:26.211Z,3.28
2019-02-25T07:18:04.298Z,3.30
2019-02-25T07:20:38.422Z,3.33
2019-02-25T07:23:14.405Z,3.37
2019-02-25T07:25:49.576Z,3.44
2019-02-25T07:28:25.556Z,3.51
2019-02-25T07:32:03.672Z,3.60
2019-02-25T07:34:37.504Z,3.68
2019-02-25T07:37:16.463Z,3.76
2019-02-25T07:39:56.697Z,3.84
2019-02-25T07:42:30.500Z,3.94
2019-02-25T07:45:09.116Z,4.03
2019-02-25T07:47:53.866Z,4.13
2019-02-25T07:50:27.870Z,4.22
2019-02-25T07:53:01.799Z,4.31
2019-02-25T07:55:35.682Z,4.46
2019-02-25T07:58:11.483Z,4.63
2019-02-25T08:00:45.311Z,4.85
2019-02-25T08:04:19.019Z,5.19
2019-02-25T08:06:56.030Z,5.42
2019-02-25T08:09:37.957Z,5.63
2019-02-25T08:12:13.923Z,6.28
2019-02-25T08:15:24.043Z,7.17
2019-02-25T08:17:58.960Z,7.95
2019-02-25T08:20:33.138Z,8.22
2019-02-25T08:23:09.048Z,8.47
2019-02-25T08:25:46.920Z,8.70
2019-02-25T08:28:21.596Z,8.91
2019-02-25T08:30:54.595Z,9.07
2019-02-25T08:33:32.676Z,9.17
2019-02-25T08:39:14.002Z,9.27
2019-02-25T08:41:48.039Z,9.39
2019-02-25T08:44:21.979Z,9.48
2019-02-25T08:46:58.003Z,9.64
2019-02-25T08:49:33.122Z,9.86
2019-02-25T08:52:01.953Z,10.10
2019-02-25T08:54:30.775Z,10.30
2019-02-25T08:56:59.586Z,10.53
2019-02-25T08:59:35.135Z,10.64
2019-02-25T09:02:03.955Z,10.86
2019-02-25T09:04:32.807Z,10.99
2019-02-25T09:07:01.667Z,11.17
2019-02-25T09:09:30.468Z,11.42
2019-02-25T09:11:59.343Z,11.69
2019-02-25T09:14:29.113Z,11.90
2019-02-25T09:16:57.931Z,12.02
2019-02-25T09:19:26.835Z,12.01
2019-02-25T09:21:55.725Z,12.04
2019-02-25T09:24:24.811Z,12.24
2019-02-25T09:26:53.716Z,12.49
2019-02-25T09:29:22.550Z,12.75
2019-02-25T09:31:51.975Z,13.02
2019-02-25T09:34:20.791Z,13.13
2019-02-25T09:36:49.623Z,13.25
2019-02-25T09:39:19.116Z,13.38
2019-02-25T09:41:49.564Z,13.50
2019-02-25T09:44:18.968Z,13.70
2019-02-25T09:46:47.737Z,13.90
2019-02-25T09:49:16.560Z,14.06
2019-02-25T09:51:45.478Z,14.27
2019-02-25T09:54:14.333Z,14.39
2019-02-25T09:56:43.133Z,14.52
2019-02-25T09:59:12.028Z,14.61
2019-02-25T10:01:40.808Z,14.65
2019-02-25T10:04:10.838Z,14.78
2019-02-25T10:06:43.290Z,14.84
2019-02-25T10:09:12.140Z,15.10
2019-02-25T10:11:40.952Z,15.15
2019-02-25T10:14:09.795Z,15.33
2019-02-25T10:16:38.752Z,15.62
2019-02-25T10:19:07.567Z,15.60
2019-02-25T10:21:36.476Z,15.43
2019-02-25T10:24:05.329Z,15.51
2019-02-25T10:26:34.188Z,15.66
2019-02-25T10:29:04.693Z,15.78
2019-02-25T10:31:34.549Z,15.92
2019-02-25T10:34:03.468Z,15.93
2019-02-25T10:36:32.278Z,16.18
2019-02-25T10:39:01.140Z,16.39
2019-02-25T10:41:30.900Z,16.48
2019-02-25T10:44:00.177Z,16.34
2019-02-25T10:46:28.511Z,16.13
2019-02-25T10:48:59.085Z,16.40
2019-02-25T10:51:27.272Z,16.74
2019-02-25T10:53:56.175Z,16.92
2019-02-25T10:56:29.283Z,16.93
2019-02-25T10:58:59.768Z,16.82
2019-02-25T11:01:27.004Z,16.78
2019-02-25T11:03:55.818Z,16.71
2019-02-25T11:06:27.370Z,16.77
2019-02-25T11:08:59.586Z,16.87
2019-02-25T11:11:32.918Z,16.98
2019-02-25T11:14:03.022Z,17.07
2019-02-25T11:16:31.644Z,17.24
2019-02-25T11:19:01.332Z,17.37
2019-02-25T11:21:32.846Z,17.36
2019-02-25T11:24:00.810Z,17.48
2019-02-25T11:26:32.486Z,17.51
2019-02-25T11:28:59.444Z,17.80
2019-02-25T11:31:29.171Z,17.70
2019-02-25T11:33:58.521Z,17.82
2019-02-25T11:36:25.875Z,17.97
2019-02-25T11:38:54.987Z,18.12
2019-02-25T11:41:23.900Z,18.20
2019-02-25T11:43:53.525Z,18.13
2019-02-25T11:46:21.560Z,18.07
2019-02-25T11:48:50.345Z,18.22
2019-02-25T11:51:19.195Z,18.38
2019-02-25T11:53:48.551Z,18.55
2019-02-25T11:56:17.420Z,18.91
2019-02-25T11:58:46.203Z,19.06
2019-02-25T12:01:15.025Z,19.23
2019-02-25T12:03:43.855Z,19.59
2019-02-25T12:06:12.650Z,19.68
2019-02-25T12:08:41.891Z,19.64
2019-02-25T12:11:10.775Z,19.44
2019-02-25T12:13:39.599Z,19.46
2019-02-25T12:16:09.887Z,19.56
2019-02-25T12:18:38.751Z,19.64
2019-02-25T12:21:07.632Z,19.86
2019-02-25T12:23:36.813Z,19.76
2019-02-25T12:26:05.805Z,19.26
2019-02-25T12:28:35.106Z,19.04
2019-02-25T12:31:03.926Z,19.22
2019-02-25T12:33:32.802Z,19.08
2019-02-25T12:36:03.134Z,18.99
2019-02-25T12:38:31.964Z,19.09
2019-02-25T12:41:01.787Z,19.41
2019-02-25T12:43:31.720Z,19.69
2019-02-25T12:46:00.556Z,19.76
2019-02-25T12:48:29.365Z,19.69
2019-02-25T12:50:58.242Z,19.44
2019-02-25T12:53:27.088Z,19.51
2019-02-25T12:55:55.931Z,19.86
2019-02-25T12:58:24.821Z,20.01
2019-02-25T13:00:55.930Z,19.95
2019-02-25T13:03:24.778Z,19.83
2019-02-25T13:05:53.717Z,19.84
2019-02-25T13:08:24.039Z,20.07
2019-02-25T13:10:54.955Z,19.87
2019-02-25T13:13:23.794Z,19.97
2019-02-25T13:15:53.267Z,20.25
2019-02-25T13:18:22.144Z,20.48
2019-02-25T13:20:50.969Z,20.03
2019-02-25T13:23:19.805Z,19.62
2019-02-25T13:25:48.662Z,19.35
2019-02-25T13:28:17.453Z,19.18
2019-02-25T13:30:46.295Z,19.02
2019-02-25T13:33:15.095Z,18.82
2019-02-25T13:35:43.882Z,18.70
2019-02-25T13:38:13.243Z,18.73
2019-02-25T13:40:43.710Z,18.77
2019-02-25T13:43:13.598Z,18.79
2019-02-25T13:45:42.433Z,18.84
2019-02-25T13:48:13.071Z,19.03
2019-02-25T13:50:41.876Z,19.15
2019-02-25T13:53:13.941Z,19.12
2019-02-25T13:55:43.898Z,18.98
2019-02-25T13:58:16.515Z,18.89
2019-02-25T14:00:45.275Z,19.13
2019-02-25T14:03:14.222Z,19.34
2019-02-25T14:05:48.944Z,19.51
2019-02-25T14:08:21.841Z,19.34
2019-02-25T14:10:50.702Z,19.14
2019-02-25T14:13:20.110Z,18.97
2019-02-25T14:15:50.102Z,19.09
2019-02-25T14:18:18.894Z,19.00
2019-02-25T14:20:47.984Z,19.12
2019-02-25T14:23:18.575Z,19.24
2019-02-25T14:25:45.998Z,19.13
2019-02-25T14:28:14.836Z,19.06
2019-02-25T14:30:43.677Z,19.11
2019-02-25T14:33:14.843Z,19.08
2019-02-25T14:35:42.568Z,19.18
2019-02-25T14:38:15.338Z,19.30
2019-02-25T14:40:46.599Z,19.28
2019-02-25T14:43:22.198Z,19.30
2019-02-25T14:45:53.699Z,19.34
2019-02-25T14:48:21.034Z,19.34
2019-02-25T14:50:47.068Z,19.19
2019-02-25T14:53:17.109Z,18.79
2019-02-25T14:55:55.307Z,18.63
2019-02-25T14:58:22.688Z,18.75
2019-02-25T15:00:51.467Z,18.85
2019-02-25T15:03:22.480Z,18.73
2019-02-25T15:05:52.345Z,18.64
2019-02-25T15:08:21.475Z,18.51
2019-02-25T15:10:50.079Z,18.50
2019-02-25T15:13:18.937Z,18.48
2019-02-25T15:15:48.275Z,18.35
2019-02-25T15:18:17.244Z,18.20
2019-02-25T15:20:46.074Z,18.03
2019-02-25T15:23:16.761Z,17.92
2019-02-25T15:25:45.418Z,17.85
2019-02-25T15:28:14.134Z,17.79
2019-02-25T15:30:41.431Z,17.70
2019-02-25T15:33:10.266Z,17.70
2019-02-25T15:35:41.638Z,17.65
2019-02-25T15:38:10.339Z,17.61
2019-02-25T15:40:40.160Z,17.58
2019-02-25T15:43:13.187Z,17.52
2019-02-25T15:45:42.728Z,17.47
2019-02-25T15:48:18.981Z,17.42
2019-02-25T15:50:50.720Z,17.33
2019-02-25T15:53:19.349Z,17.26
2019-02-25T15:55:48.239Z,17.22
2019-02-25T15:58:22.274Z,17.15
2019-02-25T16:00:51.098Z,17.07
2019-02-25T16:03:21.311Z,17.00
2019-02-25T16:05:52.268Z,16.95
2019-02-25T16:08:21.017Z,16.91
2019-02-25T16:10:49.442Z,16.83
2019-02-25T16:13:17.030Z,16.78
2019-02-25T16:15:45.917Z,16.72
2019-02-25T16:18:14.736Z,16.66
2019-02-25T16:20:46.239Z,16.61
2019-02-25T16:23:13.433Z,16.54
2019-02-25T16:25:42.228Z,16.46
2019-02-25T16:28:13.054Z,16.37
2019-02-25T16:30:40.538Z,16.32
2019-02-25T16:33:09.999Z,16.28
2019-02-25T16:35:38.985Z,16.20
2019-02-25T16:38:07.396Z,16.11
2019-02-25T16:40:37.803Z,16.02
2019-02-25T16:43:07.200Z,15.94
2019-02-25T16:45:35.492Z,15.87
2019-02-25T16:48:02.965Z,15.80
2019-02-25T16:50:31.803Z,15.73
2019-02-25T16:53:03.696Z,15.66
2019-02-25T16:55:29.453Z,15.58
2019-02-25T16:57:59.060Z,15.49
2019-02-25T17:00:29.887Z,15.39
2019-02-25T17:03:01.325Z,15.31
2019-02-25T17:05:28.372Z,15.21
2019-02-25T17:07:57.816Z,15.06
2019-02-25T17:10:29.192Z,14.96
2019-02-25T17:12:55.583Z,14.87
2019-02-25T17:15:26.294Z,14.76
2019-02-25T17:17:58.342Z,14.64
2019-02-25T17:20:23.295Z,14.51
2019-02-25T17:22:52.191Z,14.41
2019-02-25T17:25:21.126Z,14.29
2019-02-25T17:27:49.998Z,14.19
2019-02-25T17:30:20.222Z,14.08
2019-02-25T17:32:48.378Z,13.98
2019-02-25T17:35:16.595Z,13.86
2019-02-25T17:37:47.661Z,13.76
2019-02-25T17:40:16.522Z,13.66
2019-02-25T17:42:47.152Z,13.55
2019-02-25T17:45:16.871Z,13.46
2019-02-25T17:47:45.716Z,13.37
2019-02-25T17:50:16.482Z,13.29
2019-02-25T17:52:46.861Z,13.20
2019-02-25T17:55:17.102Z,13.13
2019-02-25T17:57:46.314Z,13.02
2019-02-25T18:00:21.104Z,12.94
2019-02-25T18:02:50.095Z,12.81
2019-02-25T18:05:20.500Z,12.68
2019-02-25T18:07:48.704Z,12.58
2019-02-25T18:10:17.844Z,12.48
2019-02-25T18:12:46.720Z,12.41
2019-02-25T18:15:18.968Z,12.34
2019-02-25T18:17:49.368Z,12.27
2019-02-25T18:20:18.741Z,12.19
2019-02-25T18:22:50.822Z,12.12
2019-02-25T18:25:18.428Z,12.02
2019-02-25T18:27:48.305Z,11.95
2019-02-25T18:30:17.913Z,11.88
2019-02-25T18:32:46.761Z,11.82
2019-02-25T18:35:16.488Z,11.76
2019-02-25T18:37:45.885Z,11.69
2019-02-25T18:40:16.202Z,11.56
2019-02-25T18:42:44.271Z,11.44
2019-02-25T18:45:16.017Z,11.31
2019-02-25T18:47:44.715Z,11.21
2019-02-25T18:50:17.223Z,11.16
2019-02-25T18:52:44.313Z,11.11
2019-02-25T18:55:13.779Z,11.05
2019-02-25T18:57:43.807Z,10.98
2019-02-25T19:00:13.202Z,10.92
2019-02-25T19:02:42.330Z,10.88
2019-02-25T19:05:13.842Z,10.82
2019-02-25T19:07:40.325Z,10.76
2019-02-25T19:10:10.602Z,10.71
2019-02-25T19:12:39.011Z,10.66
2019-02-25T19:15:08.195Z,10.60
2019-02-25T19:17:37.660Z,10.53
2019-02-25T19:20:06.942Z,10.47
2019-02-25T19:22:37.512Z,10.38
2019-02-25T19:25:07.584Z,10.31
2019-02-25T19:27:35.880Z,10.25
2019-02-25T19:30:05.530Z,10.20
2019-02-25T19:32:35.927Z,10.15
2019-02-25T19:35:04.757Z,10.08
2019-02-25T19:37:37.533Z,10.02
2019-02-25T19:40:05.344Z,9.94
2019-02-25T19:42:31.363Z,9.88
2019-02-25T19:45:01.536Z,9.84
2019-02-25T19:47:33.063Z,9.79
2019-02-25T19:50:04.474Z,9.73
2019-02-25T19:52:34.750Z,9.67
2019-02-25T19:54:59.730Z,9.63
2019-02-25T19:57:30.799Z,9.56
2019-02-25T20:00:00.048Z,9.53
2019-02-25T20:02:27.682Z,9.49
2019-02-25T20:04:55.721Z,9.43
2019-02-25T20:07:26.470Z,9.40
2019-02-25T20:09:57.519Z,9.35
2019-02-25T20:12:23.577Z,9.32
2019-02-25T20:14:52.414Z,9.29
2019-02-25T20:17:21.917Z,9.25
2019-02-25T20:19:50.611Z,9.21
2019-02-25T20:22:19.508Z,9.16
2019-02-25T20:24:50.516Z,9.11
2019-02-25T20:27:17.167Z,9.01
2019-02-25T20:29:47.876Z,8.97
2019-02-25T20:32:16.443Z,8.93
2019-02-25T20:34:45.937Z,8.89
2019-02-25T20:37:13.074Z,8.85
2019-02-25T20:39:44.618Z,8.82
2019-02-25T20:42:15.014Z,8.76
2019-02-25T20:44:41.513Z,8.73
2019-02-25T20:47:10.896Z,8.68
2019-02-25T20:49:40.599Z,8.65
2019-02-25T20:52:09.487Z,8.60
2019-02-25T20:54:40.907Z,8.56
2019-02-25T20:57:08.428Z,8.50
2019-02-25T20:59:35.958Z,8.46
2019-02-25T21:02:09.672Z,8.42
2019-02-25T21:04:36.445Z,8.39
2019-02-25T21:07:04.357Z,8.34
2019-02-25T21:09:33.716Z,8.31
2019-02-25T21:12:01.458Z,8.26
2019-02-25T21:14:31.779Z,8.21
2019-02-25T21:17:01.053Z,8.16
2019-02-25T21:19:28.716Z,8.13
2019-02-25T21:21:59.673Z,8.09
2019-02-25T21:24:26.927Z,8.05
2019-02-25T21:26:59.639Z,8.02
2019-02-25T21:29:28.949Z,7.98
2019-02-25T21:31:58.764Z,7.94
2019-02-25T21:34:28.618Z,7.90
2019-02-25T21:36:56.270Z,7.89
2019-02-25T21:39:24.850Z,7.85
2019-02-25T21:41:54.092Z,7.80
2019-02-25T21:44:24.182Z,7.78
2019-02-25T21:46:53.724Z,7.74
2019-02-25T21:49:25.092Z,7.71
2019-02-25T21:51:49.405Z,7.66
2019-02-25T21:54:18.319Z,7.61
2019-02-25T21:56:47.140Z,7.58
2019-02-25T21:59:17.542Z,7.55
2019-02-25T22:01:44.782Z,7.52
2019-02-25T22:04:15.586Z,7.49
2019-02-25T22:06:42.388Z,7.44
2019-02-25T22:09:11.246Z,7.40
2019-02-25T22:11:40.037Z,7.38
2019-02-25T22:14:08.845Z,7.35
2019-02-25T22:16:44.014Z,7.32
2019-02-25T22:19:06.491Z,7.29
2019-02-25T22:21:35.283Z,7.25
2019-02-25T22:24:05.826Z,7.23
2019-02-25T22:26:33.363Z,7.20
2019-02-25T22:29:02.982Z,7.16
2019-02-25T22:31:32.977Z,7.12
2019-02-25T22:34:00.575Z,7.06
2019-02-25T22:36:30.252Z,7.04
2019-02-25T22:39:01.893Z,7.02
2019-02-25T22:41:28.843Z,6.97
2019-02-25T22:43:59.963Z,6.94
2019-02-25T22:46:29.944Z,6.93
2019-02-25T22:48:59.316Z,6.91
2019-02-25T22:51:28.224Z,6.87
2019-02-25T22:53:55.164Z,6.85
2019-02-25T22:56:27.925Z,6.82
2019-02-25T22:58:53.995Z,6.79
2019-02-25T23:01:22.641Z,6.76
2019-02-25T23:03:53.390Z,6.74
2019-02-25T23:06:21.304Z,6.70
2019-02-25T23:08:51.015Z,6.66
2019-02-25T23:11:19.794Z,6.63
2019-02-25T23:13:47.853Z,6.60
2019-02-25T23:16:17.966Z,6.58
2019-02-25T23:18:45.387Z,6.53
2019-02-25T23:21:23.224Z,6.50
2019-02-25T23:23:43.281Z,6.48
2019-02-25T23:26:12.629Z,6.44
2019-02-25T23:28:41.782Z,6.41
2019-02-25T23:31:14.464Z,6.39
2019-02-25T23:33:42.291Z,6.36
2019-02-25T23:36:10.966Z,6.33
2019-02-25T23:38:38.873Z,6.29
2019-02-25T23:41:09.572Z,6.26
2019-02-25T23:43:38.459Z,6.22
2019-02-25T23:46:06.635Z,6.18
2019-02-25T23:48:36.354Z,6.15
2019-02-25T23:51:03.636Z,6.14
2019-02-25T23:53:35.089Z,6.10
2019-02-25T23:56:01.887Z,6.04
2019-02-25T23:58:31.750Z,6.01
